Hel, Poland
Current Conditions -  °F | °C
As of 12:00 AM on Monday 26 Jan 2015 (Local Time) from EPGD Reporting Station
Haze Haze  
Wind Chill: 32°   Ceiling: 2000
Heat Index: 32°   Visibility: 1.8mi
Dew Point: 32°   Wind: 3mph
Humidity: 100%   Direction: 260°W
Pressure: 30.18"   Gusts: NA
Location:  54.6°N, 18.82°E
Report Text: EPGD 252200Z 26003KT 230V290 3000 BR FEW004 BKN020 M00/M00 Q1022
Loading
Personal Weather Stations






























Interactive Weather Map New forecast layout! Learn more

10-Day Weather Forecast

Advertisements
Track Severe Weather on mobile